createdAt,value
2022-10-09T00:00:34.355Z,0.00
2022-10-09T00:01:34.419Z,0.00
2022-10-09T00:02:34.539Z,0.00
2022-10-09T00:03:40.850Z,0.00
2022-10-09T00:04:35.375Z,0.00
2022-10-09T00:05:35.444Z,0.00
2022-10-09T00:06:35.610Z,0.00
2022-10-09T00:07:34.177Z,0.00
2022-10-09T00:08:41.874Z,0.00
2022-10-09T00:09:34.221Z,0.00
2022-10-09T00:10:35.593Z,0.00
2022-10-09T00:11:34.502Z,0.00
2022-10-09T00:12:34.535Z,0.00
2022-10-09T00:13:41.518Z,0.00
2022-10-09T00:14:34.397Z,0.00
2022-10-09T00:15:34.038Z,0.00
2022-10-09T00:16:35.108Z,0.00
2022-10-09T00:17:35.012Z,0.00
2022-10-09T00:18:40.318Z,0.00
2022-10-09T00:19:34.403Z,0.00
2022-10-09T00:20:34.521Z,0.00
2022-10-09T00:21:38.119Z,0.00
2022-10-09T00:22:34.595Z,0.00
2022-10-09T00:23:40.737Z,0.00
2022-10-09T00:24:34.017Z,0.00
2022-10-09T00:25:35.132Z,0.00
2022-10-09T00:26:34.185Z,0.00
2022-10-09T00:27:33.973Z,0.00
2022-10-09T00:28:38.306Z,0.00
2022-10-09T00:29:40.406Z,0.00
2022-10-09T00:30:33.972Z,0.00
2022-10-09T00:31:33.886Z,0.00
2022-10-09T00:32:35.007Z,0.00
2022-10-09T00:33:35.069Z,0.00
2022-10-09T00:34:40.502Z,0.00
2022-10-09T00:35:33.785Z,0.00
2022-10-09T00:36:33.890Z,0.00
2022-10-09T00:37:34.817Z,0.00
2022-10-09T00:38:34.248Z,0.00
2022-10-09T00:39:40.479Z,0.00
2022-10-09T00:40:36.791Z,0.00
2022-10-09T00:41:34.061Z,0.00
2022-10-09T00:42:33.664Z,0.00
2022-10-09T00:43:34.090Z,0.00
2022-10-09T00:44:33.718Z,0.00
2022-10-09T00:45:40.004Z,0.00
2022-10-09T00:46:33.874Z,0.00
2022-10-09T00:47:33.936Z,0.00
2022-10-09T00:48:34.688Z,0.00
2022-10-09T00:49:33.556Z,0.00
2022-10-09T00:50:40.359Z,0.00
2022-10-09T00:51:33.793Z,0.00
2022-10-09T00:52:33.833Z,0.00
2022-10-09T00:53:33.716Z,0.00
2022-10-09T00:54:34.642Z,0.00
2022-10-09T00:55:33.542Z,0.00
2022-10-09T00:56:41.087Z,0.00
2022-10-09T00:57:35.070Z,0.00
2022-10-09T00:58:33.812Z,0.00
2022-10-09T00:59:33.714Z,0.00
2022-10-09T01:00:34.136Z,0.00
2022-10-09T01:01:33.525Z,0.00
2022-10-09T01:02:45.444Z,0.00
2022-10-09T01:03:33.523Z,0.00
2022-10-09T01:04:35.980Z,0.00
2022-10-09T01:05:34.625Z,0.00
2022-10-09T01:06:34.011Z,0.00
2022-10-09T01:07:38.331Z,0.00
2022-10-09T01:08:40.900Z,0.00
2022-10-09T01:09:33.728Z,0.00
2022-10-09T01:10:33.333Z,0.00
2022-10-09T01:11:33.474Z,0.00
2022-10-09T01:12:33.797Z,0.00
2022-10-09T01:13:34.157Z,0.00
2022-10-09T01:14:40.999Z,0.00
2022-10-09T01:15:33.887Z,0.00
2022-10-09T01:16:33.577Z,0.00
2022-10-09T01:17:33.808Z,0.00
2022-10-09T01:18:34.155Z,0.00
2022-10-09T01:19:33.299Z,0.00
2022-10-09T01:20:39.651Z,0.00
2022-10-09T01:21:33.418Z,0.00
2022-10-09T01:22:33.434Z,0.00
2022-10-09T01:23:33.993Z,0.00
2022-10-09T01:24:33.327Z,0.00
2022-10-09T01:25:34.514Z,0.00
2022-10-09T01:26:39.468Z,0.00
2022-10-09T01:27:33.202Z,0.00
2022-10-09T01:28:33.498Z,0.00
2022-10-09T01:29:33.110Z,0.00
2022-10-09T01:30:33.103Z,0.00
2022-10-09T01:31:33.163Z,0.00
2022-10-09T01:32:40.417Z,0.00
2022-10-09T01:33:33.089Z,0.00
2022-10-09T01:34:33.966Z,0.00
2022-10-09T01:35:33.397Z,0.00
2022-10-09T01:36:34.222Z,0.00
2022-10-09T01:37:39.307Z,0.00
2022-10-09T01:38:33.859Z,0.00
2022-10-09T01:39:33.357Z,0.00
2022-10-09T01:40:35.654Z,0.00
2022-10-09T01:41:33.961Z,0.00
2022-10-09T01:42:33.295Z,0.00
2022-10-09T01:43:40.357Z,0.00
2022-10-09T01:44:33.627Z,0.00
2022-10-09T01:45:33.033Z,0.00
2022-10-09T01:46:32.978Z,0.00
2022-10-09T01:47:32.927Z,0.00
2022-10-09T01:48:33.136Z,0.00
2022-10-09T01:49:39.195Z,0.00
2022-10-09T01:50:33.339Z,0.00
2022-10-09T01:51:33.068Z,0.00
2022-10-09T01:52:32.799Z,0.00
2022-10-09T01:53:36.938Z,0.00
2022-10-09T01:54:39.403Z,0.00
2022-10-09T01:55:32.798Z,0.00
2022-10-09T01:56:34.676Z,0.00
2022-10-09T01:57:33.040Z,0.00
2022-10-09T01:58:32.896Z,0.00
2022-10-09T01:59:33.513Z,0.00
2022-10-09T02:00:39.398Z,0.00
2022-10-09T02:01:34.355Z,0.00
2022-10-09T02:02:32.762Z,0.00
2022-10-09T02:03:32.749Z,0.00
2022-10-09T02:04:34.043Z,0.00
2022-10-09T02:05:33.115Z,0.00
2022-10-09T02:06:38.961Z,0.00
2022-10-09T02:07:33.124Z,0.00
2022-10-09T02:08:33.542Z,0.00
2022-10-09T02:09:32.665Z,0.00
2022-10-09T02:10:33.375Z,0.00
2022-10-09T02:11:40.263Z,0.00
2022-10-09T02:12:32.773Z,0.00
2022-10-09T02:13:32.975Z,0.00
2022-10-09T02:14:34.942Z,0.00
2022-10-09T02:15:32.533Z,0.00
2022-10-09T02:17:03.956Z,0.00
2022-10-09T02:18:03.749Z,0.00
2022-10-09T02:19:02.659Z,0.00
2022-10-09T02:20:03.188Z,0.00
2022-10-09T02:21:02.961Z,0.00
2022-10-09T02:22:10.342Z,0.00
2022-10-09T02:23:07.974Z,0.00
2022-10-09T02:24:02.133Z,0.00
2022-10-09T02:25:02.493Z,0.00
2022-10-09T02:26:02.579Z,0.00
2022-10-09T02:27:09.612Z,0.00
2022-10-09T02:28:02.125Z,0.00
2022-10-09T02:29:02.808Z,0.00
2022-10-09T02:30:02.507Z,0.00
2022-10-09T02:31:03.459Z,0.00
2022-10-09T02:32:02.602Z,0.00
2022-10-09T02:33:08.657Z,0.00
2022-10-09T02:34:02.336Z,0.00
2022-10-09T02:35:02.112Z,0.00
2022-10-09T02:36:02.752Z,0.00
2022-10-09T02:37:03.044Z,0.00
2022-10-09T02:38:01.958Z,0.00
2022-10-09T02:39:08.469Z,0.00
2022-10-09T02:40:06.984Z,0.00
2022-10-09T02:41:04.116Z,0.00
2022-10-09T02:42:02.040Z,0.00
2022-10-09T02:43:01.872Z,0.00
2022-10-09T02:44:01.896Z,0.00
2022-10-09T02:45:08.181Z,0.00
2022-10-09T02:46:03.236Z,0.00
2022-10-09T02:47:02.034Z,0.00
2022-10-09T02:48:02.345Z,0.00
2022-10-09T02:49:02.475Z,0.00
2022-10-09T02:50:02.375Z,0.00
2022-10-09T02:51:09.384Z,0.00
2022-10-09T02:52:01.980Z,0.00
2022-10-09T02:53:01.875Z,0.00
2022-10-09T02:54:01.832Z,0.00
2022-10-09T02:55:02.139Z,0.00
2022-10-09T02:56:03.172Z,0.00
2022-10-09T02:57:08.093Z,0.00
2022-10-09T02:58:03.935Z,0.00
2022-10-09T02:59:01.730Z,0.00
2022-10-09T03:00:02.672Z,0.00
2022-10-09T03:01:01.604Z,0.00
2022-10-09T03:02:08.037Z,0.00
2022-10-09T03:03:02.771Z,0.00
2022-10-09T03:04:02.183Z,0.00
2022-10-09T03:05:01.647Z,0.00
2022-10-09T03:06:01.692Z,0.00
2022-10-09T03:07:01.975Z,0.00
2022-10-09T03:08:09.199Z,0.00
2022-10-09T03:09:02.473Z,0.00
2022-10-09T03:10:02.081Z,0.00
2022-10-09T03:11:01.549Z,0.00
2022-10-09T03:12:01.496Z,0.00
2022-10-09T03:13:01.631Z,0.00
2022-10-09T03:14:08.379Z,0.00
2022-10-09T03:15:01.893Z,0.00
2022-10-09T03:16:02.429Z,0.00
2022-10-09T03:17:01.836Z,0.00
2022-10-09T03:18:02.487Z,0.00
2022-10-09T03:19:01.444Z,0.00
2022-10-09T03:20:08.360Z,0.00
2022-10-09T03:21:01.422Z,0.00
2022-10-09T03:22:01.458Z,0.00
2022-10-09T03:23:01.602Z,0.00
2022-10-09T03:24:01.353Z,0.00
2022-10-09T03:25:01.728Z,0.00
2022-10-09T03:26:08.261Z,0.00
2022-10-09T03:27:01.370Z,0.00
2022-10-09T03:28:01.453Z,0.00
2022-10-09T03:29:01.401Z,0.00
2022-10-09T03:30:01.342Z,0.00
2022-10-09T03:31:01.649Z,0.00
2022-10-09T03:32:08.573Z,0.00
2022-10-09T03:33:01.673Z,0.00
2022-10-09T03:34:02.325Z,0.00
2022-10-09T03:35:01.344Z,0.00
2022-10-09T03:36:01.728Z,0.00
2022-10-09T03:37:01.200Z,0.00
2022-10-09T03:38:07.800Z,0.00
2022-10-09T03:39:01.149Z,0.00
2022-10-09T03:40:02.403Z,0.00
2022-10-09T03:41:01.098Z,0.00
2022-10-09T03:42:02.373Z,0.00
2022-10-09T03:43:01.155Z,0.00
2022-10-09T03:44:08.170Z,0.00
2022-10-09T03:45:01.180Z,0.00
2022-10-09T03:46:01.627Z,0.00
2022-10-09T03:47:01.892Z,0.00
2022-10-09T03:48:01.720Z,0.00
2022-10-09T03:49:01.610Z,0.00
2022-10-09T03:50:07.365Z,0.00
2022-10-09T03:51:01.106Z,0.00
2022-10-09T03:52:01.607Z,0.00
2022-10-09T03:53:01.554Z,0.00
2022-10-09T03:54:01.887Z,0.00
2022-10-09T03:55:01.336Z,0.00
2022-10-09T03:56:08.009Z,0.00
2022-10-09T03:57:00.913Z,0.00
2022-10-09T03:58:02.188Z,0.00
2022-10-09T03:59:01.277Z,0.00
2022-10-09T04:00:01.228Z,0.00
2022-10-09T04:01:07.833Z,0.00
2022-10-09T04:02:03.320Z,0.00
2022-10-09T04:03:01.892Z,0.00
2022-10-09T04:04:01.258Z,0.00
2022-10-09T04:05:00.830Z,0.00
2022-10-09T04:06:01.024Z,0.00
2022-10-09T04:07:11.665Z,0.00
2022-10-09T04:08:00.802Z,0.00
2022-10-09T04:09:01.718Z,0.00
2022-10-09T04:10:00.854Z,0.00
2022-10-09T04:11:01.111Z,0.00
2022-10-09T04:12:00.796Z,0.00
2022-10-09T04:13:07.088Z,0.00
2022-10-09T04:14:00.988Z,0.00
2022-10-09T04:15:00.739Z,0.00
2022-10-09T04:16:01.391Z,0.00
2022-10-09T04:17:00.915Z,0.00
2022-10-09T04:18:07.930Z,0.00
2022-10-09T04:19:01.069Z,0.00
2022-10-09T04:20:00.714Z,0.00
2022-10-09T04:21:01.406Z,0.00
2022-10-09T04:22:01.670Z,0.00
2022-10-09T04:23:00.642Z,0.00
2022-10-09T04:24:07.487Z,0.00
2022-10-09T04:25:00.883Z,0.00
2022-10-09T04:26:00.584Z,0.00
2022-10-09T04:27:00.946Z,0.00
2022-10-09T04:28:00.671Z,0.00
2022-10-09T04:29:07.260Z,0.00
2022-10-09T04:30:00.521Z,0.00
2022-10-09T04:31:00.713Z,0.00
2022-10-09T04:32:00.944Z,0.00
2022-10-09T04:33:00.778Z,0.00
2022-10-09T04:34:06.779Z,0.00
2022-10-09T04:35:02.044Z,0.00
2022-10-09T04:36:01.024Z,0.00
2022-10-09T04:37:00.437Z,0.00
2022-10-09T04:38:00.546Z,0.00
2022-10-09T04:39:01.760Z,0.00
2022-10-09T04:40:06.991Z,0.00
2022-10-09T04:41:00.386Z,0.00
2022-10-09T04:42:01.012Z,0.00
2022-10-09T04:43:01.088Z,0.00
2022-10-09T04:44:01.701Z,0.00
2022-10-09T04:45:00.375Z,0.00
2022-10-09T04:46:06.659Z,0.00
2022-10-09T04:47:00.575Z,0.00
2022-10-09T04:48:00.398Z,0.00
2022-10-09T04:49:00.525Z,0.00
2022-10-09T04:50:00.605Z,0.00
2022-10-09T04:51:06.561Z,0.00
2022-10-09T04:52:00.212Z,0.00
2022-10-09T04:53:00.180Z,0.00
2022-10-09T04:54:00.855Z,4.00
2022-10-09T04:55:00.548Z,0.00
2022-10-09T04:56:00.834Z,0.00
2022-10-09T04:57:07.279Z,4.00
2022-10-09T04:58:00.951Z,0.00
2022-10-09T04:59:00.124Z,4.00
2022-10-09T05:00:02.880Z,4.00
2022-10-09T05:01:00.660Z,8.00
2022-10-09T05:02:06.500Z,8.00
2022-10-09T05:03:00.519Z,8.00
2022-10-09T05:04:00.128Z,8.00
2022-10-09T05:05:00.103Z,12.00
2022-10-09T05:06:00.122Z,12.00
2022-10-09T05:07:06.739Z,12.00
2022-10-09T05:08:00.672Z,16.00
2022-10-09T05:09:00.367Z,16.00
2022-10-09T05:10:00.185Z,24.00
2022-10-09T05:11:00.054Z,24.00
2022-10-09T05:12:06.334Z,28.00
2022-10-09T05:12:59.972Z,32.00
2022-10-09T05:14:00.064Z,36.00
2022-10-09T05:15:00.456Z,40.00
2022-10-09T05:16:21.960Z,48.00
2022-10-09T05:17:13.767Z,52.00
2022-10-09T05:18:07.828Z,56.00
2022-10-09T05:19:00.177Z,64.00
2022-10-09T05:20:00.548Z,72.00
2022-10-09T05:21:00.293Z,80.00
2022-10-09T05:22:00.041Z,84.00
2022-10-09T05:22:59.869Z,92.00
2022-10-09T05:24:10.130Z,100.00
2022-10-09T05:25:01.089Z,112.00
2022-10-09T05:26:00.260Z,120.00
2022-10-09T05:26:59.768Z,128.00
2022-10-09T05:28:00.426Z,136.00
2022-10-09T05:29:06.029Z,144.00
2022-10-09T05:30:00.318Z,160.00
2022-10-09T05:31:00.088Z,168.00
2022-10-09T05:31:59.783Z,180.00
2022-10-09T05:33:00.421Z,188.00
2022-10-09T05:34:05.977Z,200.00
2022-10-09T05:34:59.699Z,208.00
2022-10-09T05:36:00.245Z,224.00
2022-10-09T05:37:01.873Z,236.00
2022-10-09T05:37:59.639Z,248.00
2022-10-09T05:38:59.628Z,256.00
2022-10-09T05:40:05.898Z,268.00
2022-10-09T05:41:00.082Z,280.00
2022-10-09T05:41:59.937Z,292.00
2022-10-09T05:42:59.882Z,304.00
2022-10-09T05:43:59.523Z,320.00
2022-10-09T05:45:06.164Z,328.00
2022-10-09T05:46:00.329Z,340.00
2022-10-09T05:46:59.986Z,352.00
2022-10-09T05:47:59.586Z,360.00
2022-10-09T05:49:00.341Z,372.00
2022-10-09T05:50:00.045Z,388.00
2022-10-09T05:51:06.570Z,400.00
2022-10-09T05:51:59.489Z,412.00
2022-10-09T05:53:00.222Z,420.00
2022-10-09T05:54:01.385Z,436.00
2022-10-09T05:55:00.304Z,444.00
2022-10-09T05:56:03.570Z,456.00
2022-10-09T05:57:05.788Z,468.00
2022-10-09T05:57:59.888Z,480.00
2022-10-09T05:58:59.955Z,488.00
2022-10-09T06:00:00.515Z,500.00
2022-10-09T06:00:59.719Z,512.00
2022-10-09T06:02:06.249Z,516.00
2022-10-09T06:02:59.295Z,528.00
2022-10-09T06:03:59.676Z,536.00
2022-10-09T06:04:59.539Z,548.00
2022-10-09T06:06:00.519Z,556.00
2022-10-09T06:07:05.632Z,564.00
2022-10-09T06:07:59.922Z,576.00
2022-10-09T06:09:01.089Z,588.00
2022-10-09T06:09:59.751Z,596.00
2022-10-09T06:10:59.259Z,604.00
2022-10-09T06:12:00.156Z,616.00
2022-10-09T06:13:05.565Z,624.00
2022-10-09T06:13:59.477Z,636.00
2022-10-09T06:14:59.887Z,644.00
2022-10-09T06:15:59.901Z,656.00
2022-10-09T06:17:00.038Z,664.00
2022-10-09T06:18:06.133Z,672.00
2022-10-09T06:18:59.848Z,684.00
2022-10-09T06:19:59.504Z,692.00
2022-10-09T06:20:59.281Z,700.00
2022-10-09T06:21:59.690Z,708.00
2022-10-09T06:23:05.434Z,720.00
2022-10-09T06:23:59.041Z,728.00
2022-10-09T06:24:59.573Z,736.00
2022-10-09T06:25:59.064Z,744.00
2022-10-09T06:27:00.101Z,752.00
2022-10-09T06:28:06.408Z,760.00
2022-10-09T06:28:59.271Z,768.00
2022-10-09T06:30:00.723Z,772.00
2022-10-09T06:30:59.620Z,780.00
2022-10-09T06:31:59.396Z,788.00
2022-10-09T06:32:59.025Z,796.00
2022-10-09T06:34:05.590Z,800.00
2022-10-09T06:35:00.160Z,808.00
2022-10-09T06:36:08.570Z,820.00
2022-10-09T06:37:00.420Z,824.00
2022-10-09T06:37:58.911Z,832.00
2022-10-09T06:38:58.860Z,840.00
2022-10-09T06:40:06.343Z,848.00
2022-10-09T06:40:59.013Z,860.00
2022-10-09T06:41:58.881Z,872.00
2022-10-09T06:42:59.288Z,884.00
2022-10-09T06:43:58.799Z,892.00
2022-10-09T06:45:07.761Z,896.00
2022-10-09T06:45:58.974Z,904.00
2022-10-09T06:46:58.789Z,908.00
2022-10-09T06:47:58.748Z,908.00
2022-10-09T06:48:59.833Z,928.00
2022-10-09T06:50:22.593Z,944.00
2022-10-09T06:50:58.760Z,948.00
2022-10-09T06:52:02.349Z,944.00
2022-10-09T06:52:58.726Z,956.00
2022-10-09T06:53:59.744Z,956.00
2022-10-09T06:55:00.608Z,948.00
2022-10-09T06:56:06.199Z,956.00
2022-10-09T06:57:19.700Z,956.00
2022-10-09T06:57:58.909Z,968.00
2022-10-09T06:58:58.991Z,992.00
2022-10-09T06:59:58.970Z,1008.00
2022-10-09T07:01:00.786Z,1036.00
2022-10-09T07:02:04.990Z,1044.00
2022-10-09T07:02:58.573Z,1048.00
2022-10-09T07:03:58.647Z,1052.00
2022-10-09T07:04:59.008Z,1028.00
2022-10-09T07:05:58.965Z,1068.00
2022-10-09T07:06:58.505Z,1072.00
2022-10-09T07:07:58.997Z,1128.00
2022-10-09T07:08:58.531Z,1140.00
2022-10-09T07:10:00.924Z,1148.00
2022-10-09T07:10:58.704Z,1172.00
2022-10-09T07:11:58.930Z,1196.00
2022-10-09T07:13:06.977Z,1244.00
2022-10-09T07:14:00.737Z,1328.00
2022-10-09T07:14:58.749Z,1320.00
2022-10-09T07:16:03.900Z,1324.00
2022-10-09T07:17:02.200Z,1352.00
2022-10-09T07:18:04.646Z,1400.00
2022-10-09T07:18:58.677Z,1472.00
2022-10-09T07:19:59.810Z,1496.00
2022-10-09T07:20:59.667Z,1428.00
2022-10-09T07:21:59.470Z,1360.00
2022-10-09T07:23:04.554Z,1344.00
2022-10-09T07:23:58.367Z,1376.00
2022-10-09T07:24:58.962Z,1412.00
2022-10-09T07:25:58.365Z,1384.00
2022-10-09T07:26:58.733Z,1292.00
2022-10-09T07:27:59.201Z,1180.00
2022-10-09T07:29:04.620Z,1128.00
2022-10-09T07:29:58.312Z,1116.00
2022-10-09T07:30:58.549Z,1108.00
2022-10-09T07:32:00.495Z,1108.00
2022-10-09T07:32:58.325Z,1112.00
2022-10-09T07:33:58.510Z,1116.00
2022-10-09T07:35:04.648Z,1120.00
2022-10-09T07:35:58.440Z,1124.00
2022-10-09T07:36:58.549Z,1132.00
2022-10-09T07:37:58.736Z,1132.00
2022-10-09T07:38:59.441Z,1132.00
2022-10-09T07:39:59.248Z,1144.00
2022-10-09T07:41:04.844Z,1156.00
2022-10-09T07:41:58.162Z,1148.00
2022-10-09T07:42:59.277Z,1184.00
2022-10-09T07:43:59.033Z,1188.00
2022-10-09T07:45:03.431Z,1156.00
2022-10-09T07:45:58.156Z,1152.00
2022-10-09T07:47:04.709Z,1100.00
2022-10-09T07:47:58.276Z,1136.00
2022-10-09T07:48:58.354Z,1152.00
2022-10-09T07:49:58.427Z,1168.00
2022-10-09T07:50:57.989Z,1164.00
2022-10-09T07:52:06.042Z,1168.00
2022-10-09T07:52:58.270Z,1184.00
2022-10-09T07:54:02.133Z,1208.00
2022-10-09T07:54:58.283Z,1204.00
2022-10-09T07:55:58.305Z,1244.00
2022-10-09T07:56:58.438Z,1228.00
2022-10-09T07:58:05.895Z,1204.00
2022-10-09T07:59:04.140Z,1188.00
2022-10-09T07:59:58.161Z,1212.00
2022-10-09T08:00:58.880Z,1208.00
2022-10-09T08:01:57.994Z,1192.00
2022-10-09T08:03:04.131Z,1188.00
2022-10-09T08:04:04.162Z,1188.00
2022-10-09T08:04:58.620Z,1160.00
2022-10-09T08:05:57.689Z,1168.00
2022-10-09T08:06:57.991Z,1152.00
2022-10-09T08:07:59.388Z,1140.00
2022-10-09T08:09:04.156Z,1060.00
2022-10-09T08:09:58.337Z,1048.00
2022-10-09T08:10:58.832Z,1068.00
2022-10-09T08:11:58.109Z,1060.00
2022-10-09T08:12:57.936Z,1052.00
2022-10-09T08:13:57.709Z,1028.00
2022-10-09T08:15:04.385Z,1020.00
2022-10-09T08:15:57.961Z,1072.00
2022-10-09T08:16:57.603Z,1056.00
2022-10-09T08:17:57.625Z,1040.00
2022-10-09T08:18:57.831Z,1044.00
2022-10-09T08:20:05.132Z,1040.00
2022-10-09T08:20:57.843Z,1092.00
2022-10-09T08:22:03.290Z,1104.00
2022-10-09T08:22:58.517Z,1140.00
2022-10-09T08:23:57.575Z,1136.00
2022-10-09T08:25:01.885Z,1140.00
2022-10-09T08:26:04.942Z,1160.00
2022-10-09T08:26:57.548Z,1148.00
2022-10-09T08:27:57.845Z,1184.00
2022-10-09T08:28:58.708Z,1212.00
2022-10-09T08:29:57.420Z,1220.00
2022-10-09T08:31:03.923Z,1224.00
2022-10-09T08:31:57.622Z,1232.00
2022-10-09T08:32:58.445Z,1236.00
2022-10-09T08:33:57.386Z,1240.00
2022-10-09T08:34:57.539Z,1244.00
2022-10-09T08:36:03.718Z,1248.00
2022-10-09T08:36:57.331Z,1248.00
2022-10-09T08:37:58.673Z,1252.00
2022-10-09T08:38:57.313Z,1248.00
2022-10-09T08:39:57.523Z,1252.00
2022-10-09T08:41:03.595Z,1252.00
2022-10-09T08:41:57.935Z,1252.00
2022-10-09T08:42:57.350Z,1256.00
2022-10-09T08:43:57.394Z,1256.00
2022-10-09T08:44:57.288Z,1260.00
2022-10-09T08:45:57.546Z,1260.00
2022-10-09T08:47:03.557Z,1264.00
2022-10-09T08:47:57.327Z,1264.00
2022-10-09T08:48:57.691Z,1264.00
2022-10-09T08:49:57.444Z,1268.00
2022-10-09T08:50:57.478Z,1276.00
2022-10-09T08:51:57.316Z,1276.00
2022-10-09T08:53:03.501Z,1280.00
2022-10-09T08:53:57.141Z,1284.00
2022-10-09T08:54:57.386Z,1280.00
2022-10-09T08:55:57.548Z,1284.00
2022-10-09T08:56:57.619Z,1288.00
2022-10-09T08:57:57.630Z,1292.00
2022-10-09T08:59:05.253Z,1288.00
2022-10-09T08:59:57.181Z,1292.00
2022-10-09T09:00:58.050Z,1296.00
2022-10-09T09:01:57.517Z,1304.00
2022-10-09T09:02:57.074Z,1304.00
2022-10-09T09:03:57.723Z,1308.00
2022-10-09T09:05:03.292Z,1312.00
2022-10-09T09:05:57.053Z,1320.00
2022-10-09T09:06:58.104Z,1324.00
2022-10-09T09:07:58.613Z,1324.00
2022-10-09T09:08:58.256Z,1332.00
2022-10-09T09:10:03.442Z,1336.00
2022-10-09T09:10:56.897Z,1336.00
2022-10-09T09:11:57.506Z,1332.00
2022-10-09T09:12:56.862Z,1340.00
2022-10-09T09:13:57.559Z,1340.00
2022-10-09T09:15:03.407Z,1344.00
2022-10-09T09:15:58.048Z,1348.00
2022-10-09T09:16:56.900Z,1352.00
2022-10-09T09:17:57.073Z,1356.00
2022-10-09T09:18:57.214Z,1360.00
2022-10-09T09:19:57.057Z,1360.00
2022-10-09T09:21:04.202Z,1368.00
2022-10-09T09:21:56.876Z,1372.00
2022-10-09T09:22:57.932Z,1376.00
2022-10-09T09:23:56.975Z,1384.00
2022-10-09T09:24:56.718Z,1384.00
2022-10-09T09:25:57.338Z,1388.00
2022-10-09T09:27:04.648Z,1396.00
2022-10-09T09:27:57.297Z,1400.00
2022-10-09T09:28:57.038Z,1408.00
2022-10-09T09:29:56.690Z,1416.00
2022-10-09T09:30:57.038Z,1420.00
2022-10-09T09:32:03.254Z,1424.00
2022-10-09T09:32:56.884Z,1428.00
2022-10-09T09:33:56.740Z,1428.00
2022-10-09T09:34:56.691Z,1436.00
2022-10-09T09:35:56.823Z,1436.00
2022-10-09T09:36:56.616Z,1440.00
2022-10-09T09:38:04.110Z,1448.00
2022-10-09T09:40:58.816Z,1468.00
2022-10-09T09:41:56.477Z,1472.00
2022-10-09T09:43:05.023Z,1480.00
2022-10-09T09:43:56.488Z,1488.00
2022-10-09T09:44:56.493Z,1492.00
2022-10-09T09:45:57.066Z,1492.00
2022-10-09T09:46:56.491Z,1496.00
2022-10-09T09:48:02.773Z,1484.00
2022-10-09T09:48:56.829Z,1484.00
2022-10-09T09:49:56.532Z,1484.00
2022-10-09T09:51:16.294Z,1496.00
2022-10-09T09:51:57.414Z,1508.00
2022-10-09T09:53:03.107Z,1520.00
2022-10-09T09:53:57.737Z,1528.00
2022-10-09T09:54:56.713Z,1532.00
2022-10-09T09:55:57.407Z,1536.00
2022-10-09T09:57:15.959Z,1544.00
2022-10-09T09:57:58.069Z,1544.00
2022-10-09T09:59:03.379Z,1552.00
2022-10-09T09:59:58.116Z,1556.00
2022-10-09T10:00:56.956Z,1564.00
2022-10-09T10:01:57.815Z,1552.00
2022-10-09T10:02:56.842Z,1560.00
2022-10-09T10:04:03.401Z,1560.00
2022-10-09T10:05:03.202Z,1576.00
2022-10-09T10:05:58.478Z,1584.00
2022-10-09T10:06:56.723Z,1588.00
2022-10-09T10:07:56.565Z,1588.00
2022-10-09T10:08:57.189Z,1600.00
2022-10-09T10:10:02.764Z,1612.00
2022-10-09T10:10:56.948Z,1616.00
2022-10-09T10:11:56.188Z,1596.00
2022-10-09T10:12:56.166Z,1636.00
2022-10-09T10:13:56.352Z,1636.00
2022-10-09T10:15:07.126Z,1612.00
2022-10-09T10:15:56.653Z,1624.00
2022-10-09T10:16:56.121Z,1636.00
2022-10-09T10:17:56.638Z,1668.00
2022-10-09T10:18:56.381Z,1680.00
2022-10-09T10:19:56.105Z,1700.00
2022-10-09T10:21:02.288Z,1744.00
2022-10-09T10:21:56.318Z,1912.00
2022-10-09T10:22:55.951Z,1984.00
2022-10-09T10:23:56.113Z,1808.00
2022-10-09T10:24:56.306Z,1696.00
2022-10-09T10:26:02.314Z,1700.00
2022-10-09T10:26:56.000Z,1756.00
2022-10-09T10:27:56.886Z,1732.00
2022-10-09T10:28:55.980Z,1716.00
2022-10-09T10:29:56.080Z,1852.00
2022-10-09T10:30:56.002Z,2348.00
2022-10-09T10:32:02.350Z,2776.00
2022-10-09T10:32:56.809Z,2832.00
2022-10-09T10:33:56.090Z,2272.00
2022-10-09T10:34:56.222Z,1820.00
2022-10-09T10:35:56.165Z,1760.00
2022-10-09T10:37:03.536Z,1756.00
2022-10-09T10:37:56.385Z,1768.00
2022-10-09T10:38:55.954Z,1796.00
2022-10-09T10:39:56.348Z,1784.00
2022-10-09T10:40:55.975Z,1760.00
2022-10-09T10:42:02.395Z,1836.00
2022-10-09T10:42:58.645Z,1792.00
2022-10-09T10:43:55.930Z,1744.00
2022-10-09T10:44:56.116Z,1752.00
2022-10-09T10:45:56.700Z,1788.00
2022-10-09T10:47:02.718Z,1828.00
2022-10-09T10:47:56.428Z,1856.00
2022-10-09T10:48:55.787Z,1556.00
2022-10-09T10:49:57.841Z,1848.00
2022-10-09T10:50:56.023Z,2000.00
2022-10-09T10:52:08.504Z,2000.00
2022-10-09T10:52:56.519Z,1904.00
2022-10-09T10:53:55.878Z,1824.00
2022-10-09T10:54:55.893Z,1852.00
2022-10-09T10:55:55.640Z,1820.00
2022-10-09T10:56:55.693Z,1828.00
2022-10-09T10:58:03.256Z,1428.00
2022-10-09T10:58:56.791Z,1424.00
2022-10-09T10:59:56.788Z,1736.00
2022-10-09T11:00:55.714Z,2560.00
2022-10-09T11:01:55.610Z,2668.00
2022-10-09T11:02:56.379Z,2580.00
2022-10-09T11:04:02.491Z,2348.00
2022-10-09T11:04:56.418Z,2224.00
2022-10-09T11:05:55.438Z,2152.00
2022-10-09T11:06:55.603Z,2196.00
2022-10-09T11:08:00.037Z,2388.00
2022-10-09T11:08:56.094Z,2432.00
2022-10-09T11:10:01.730Z,2392.00
2022-10-09T11:10:56.394Z,2240.00
2022-10-09T11:11:56.020Z,1988.00
2022-10-09T11:12:55.744Z,2012.00
2022-10-09T11:13:56.581Z,1984.00
2022-10-09T11:14:55.349Z,1972.00
2022-10-09T11:16:02.501Z,1964.00
2022-10-09T11:16:56.718Z,2056.00
2022-10-09T11:18:01.577Z,1888.00
2022-10-09T11:18:56.038Z,3044.00
2022-10-09T11:19:56.580Z,3168.00
2022-10-09T11:21:02.742Z,3636.00
2022-10-09T11:21:55.266Z,3744.00
2022-10-09T11:22:55.319Z,3588.00
2022-10-09T11:23:55.737Z,3708.00
2022-10-09T11:24:55.184Z,3604.00
2022-10-09T11:26:01.542Z,2892.00
2022-10-09T11:26:59.658Z,2280.00
2022-10-09T11:27:57.011Z,2288.00
2022-10-09T11:28:55.140Z,2320.00
2022-10-09T11:29:55.323Z,2412.00
2022-10-09T11:30:56.332Z,2660.00
2022-10-09T11:32:01.910Z,2508.00
2022-10-09T11:32:55.673Z,2340.00
2022-10-09T11:33:55.637Z,2500.00
2022-10-09T11:34:55.288Z,2560.00
2022-10-09T11:35:55.144Z,2988.00
2022-10-09T11:37:01.428Z,3732.00
2022-10-09T11:37:55.113Z,4268.00
2022-10-09T11:38:55.123Z,4536.00
2022-10-09T11:39:54.995Z,4136.00
2022-10-09T11:40:55.436Z,3456.00
2022-10-09T11:42:01.691Z,2764.00
2022-10-09T11:42:55.468Z,2252.00
2022-10-09T11:43:57.408Z,1748.00
2022-10-09T11:44:55.054Z,1732.00
2022-10-09T11:45:55.512Z,1944.00
2022-10-09T11:46:54.846Z,2216.00
2022-10-09T11:48:02.697Z,2208.00
2022-10-09T11:48:57.237Z,1884.00
2022-10-09T11:49:54.898Z,1604.00
2022-10-09T11:50:54.975Z,1664.00
2022-10-09T11:51:54.880Z,1664.00
2022-10-09T11:53:01.263Z,1680.00
2022-10-09T11:53:54.942Z,2052.00
2022-10-09T11:54:55.142Z,2304.00
2022-10-09T11:55:55.655Z,2252.00
2022-10-09T11:56:55.255Z,2156.00
2022-10-09T11:57:54.755Z,2152.00
2022-10-09T11:59:01.223Z,2212.00
2022-10-09T11:59:54.693Z,2232.00
2022-10-09T12:00:54.902Z,2208.00
2022-10-09T12:01:54.890Z,2188.00
2022-10-09T12:02:54.837Z,2204.00
2022-10-09T12:04:02.089Z,2208.00
2022-10-09T12:04:55.759Z,2228.00
2022-10-09T12:05:55.325Z,1548.00
2022-10-09T12:06:54.624Z,1468.00
2022-10-09T12:07:54.718Z,1968.00
2022-10-09T12:09:02.392Z,2312.00
2022-10-09T12:09:54.693Z,2424.00
2022-10-09T12:10:54.624Z,2600.00
2022-10-09T12:11:54.735Z,2680.00
2022-10-09T12:12:54.925Z,2620.00
2022-10-09T12:14:00.992Z,2552.00
2022-10-09T12:14:54.737Z,2832.00
2022-10-09T12:15:54.491Z,3528.00
2022-10-09T12:16:54.643Z,4128.00
2022-10-09T12:17:55.204Z,4276.00
2022-10-09T12:19:01.032Z,4424.00
2022-10-09T12:19:58.697Z,4424.00
2022-10-09T12:20:57.086Z,3844.00
2022-10-09T12:21:54.540Z,3252.00
2022-10-09T12:23:24.698Z,2960.00
2022-10-09T12:23:56.236Z,2984.00
2022-10-09T12:25:01.355Z,3044.00
2022-10-09T12:25:54.977Z,3100.00
2022-10-09T12:26:56.810Z,3260.00
2022-10-09T12:27:54.460Z,3476.00
2022-10-09T12:28:55.696Z,3668.00
2022-10-09T12:30:00.883Z,3640.00
2022-10-09T12:30:55.141Z,3372.00
2022-10-09T12:31:54.348Z,3604.00
2022-10-09T12:32:55.222Z,4208.00
2022-10-09T12:33:54.698Z,4228.00
2022-10-09T12:34:54.584Z,3644.00
2022-10-09T12:36:00.853Z,3112.00
2022-10-09T12:36:54.732Z,3048.00
2022-10-09T12:37:54.930Z,2928.00
2022-10-09T12:38:54.353Z,2976.00
2022-10-09T12:39:54.374Z,3080.00